• Join FlightAware (Why Join?)
  • Login
  • US Flag 
10:20PM EDT


 

Airport Tracker/Info


-or-


 

Live Flight TrackerFlight Track Log ✈ SWA2182 ✈ 26-Apr-2013 ✈ KSMF - KSAN

Flight Track Log - Related Links

Times and Time Zones

All times are in EDT time to prevent confusion due to time zone crossing. See the SWA2182 flight status page for this flight to view local times or setup timezone preferences in your user account.

Time Position Orientation Groundspeed Altitude Reporting Facility
EDT Latitude Longitude Course Direction KTS MPH feet Rate Location/Type
09:10AM 38.7333 -121.5667 134° Southeast 191 220 2,400  Level Northern Cal TRACON
09:12AM 38.6558 -121.4719 136° Southeast 248 285 6,100 2,760 Climbing Oakland Center
09:13AM 38.6147 -121.3911 123° Southeast 264 304 10,100 3,180 Climbing Oakland Center
09:14AM 38.5683 -121.3014 123° Southeast 278 320 12,500 2,820 Climbing Oakland Center
09:15AM 38.2511 -121.2343 134° Southeast  Level Estimated
09:15AM 38.5064 -121.1900 125° Southeast 342 394 15,800  Level Oakland Center
09:16AM 38.4411 -121.0692 125° Southeast 381 438 19,000 3,060 Climbing Oakland Center
09:17AM 38.3792 -120.9539 124° Southeast 393 452 22,000 2,700 Climbing Oakland Center
09:18AM 38.3147 -120.8336 124° Southeast 407 468 24,500 2,220 Climbing Oakland Center
09:19AM 38.2167 -120.7483 146° Southeast 434 499 26,500 1,980 Climbing Oakland Center
09:20AM 38.1011 -120.6833 156° South 450 518 28,500 1,920 Climbing Oakland Center
09:21AM 37.9850 -120.6164 156° South 455 524 30,400 1,860 Climbing Oakland Center
09:22AM 37.8656 -120.5489 156° South 466 536 32,300 1,920 Climbing Oakland Center
09:23AM 37.7483 -120.4822 156° South 462 532 34,300 1,920 Climbing Oakland Center
09:24AM 37.6308 -120.4167 156° South 459 528 36,200 1,500 Climbing Oakland Center
09:25AM 37.5167 -120.3511 156° South 453 521 37,400 960 Climbing Oakland Center
09:26AM 37.3992 -120.2850 156° South 459 528 38,200 780 Climbing Oakland Center
09:27AM 37.2778 -120.2222 158° South 466 536 39,000 360 Climbing Oakland Center
09:28AM 37.1603 -120.1569 156° South 455 524 39,000  Level Oakland Center
09:29AM 37.0442 -120.0922 156° South 448 516 39,000  Level Oakland Center
09:30AM 36.9303 -120.0272 155° Southeast 448 516 39,000  Level Oakland Center
09:31AM 36.8133 -119.9617 156° South 456 525 39,000  Level Oakland Center
09:32AM 36.6992 -119.8981 156° South 451 519 39,000  Level Oakland Center
09:33AM 36.5850 -119.8347 156° South 449 517 39,000  Level Oakland Center
09:34AM 36.4706 -119.7717 156° South 448 516 39,000  Level Oakland Center
09:35AM 36.3561 -119.7086 156° South 449 517 39,000  Level Oakland Center
09:36AM 36.2417 -119.6461 156° South 449 517 39,000  Level Oakland Center
09:37AM 36.1264 -119.5839 156° South 451 519 39,000  Level Oakland Center
09:38AM 36.0117 -119.5225 157° South 449 517 39,000  Level Oakland Center
09:39AM 35.8992 -119.4639 157° South 441 507 39,000  Level Oakland Center
09:40AM 35.7844 -119.4022 156° South 444 511 39,000  Level Oakland Center
09:41AM 35.6675 -119.3383 156° South 452 520 39,000  Level Oakland Center
09:42AM 35.5264 -119.2647 157° South 456 525 39,000  Level Oakland Center
09:43AM 35.4103 -119.2028 156° South 455 524 39,000  Level Oakland Center
09:44AM 35.2961 -119.1422 157° South 448 516 39,000  Level Oakland Center
09:45AM 35.1806 -119.0814 157° South 449 517 39,000  Level Oakland Center
09:46AM 35.0664 -119.0233 157° South 445 512 39,000  Level Oakland Center
09:47AM 34.9536 -118.9644 157° South 441 507 39,000  Level Oakland Center
09:48AM 34.8456 -118.9036 155° Southeast 432 497 39,000  Level Oakland Center
09:49AM 34.7244 -118.8406 157° South 439 505 39,000  Level Los Angeles Center
09:50AM 34.6108 -118.7819 157° South 442 509 39,000  Level Los Angeles Center
09:51AM 34.4761 -118.7128 157° South 440 506 39,000  Level Los Angeles Center
09:52AM 34.3639 -118.6544 157° South 439 505 39,000  Level Los Angeles Center
09:53AM 34.2514 -118.5978 157° South 439 505 39,000 -240 Level Los Angeles Center
09:54AM 34.1386 -118.5389 157° South 440 506 38,600 -720 Descending Los Angeles Center
09:55AM 34.0267 -118.4808 157° South 438 504 37,600 -1,140 Descending Los Angeles Center
09:56AM 33.9189 -118.4122 152° Southeast 443 510 36,300 -1,980 Descending Los Angeles Center
09:57AM 33.8300 -118.3042 135° Southeast 449 517 33,600 -2,820 Descending Los Angeles Center
09:58AM 33.7422 -118.1869 132° Southeast 451 519 30,600 -2,640 Descending Los Angeles Center
09:59AM 33.6556 -118.0778 134° Southeast 449 517 28,300 -2,220 Descending Los Angeles Center
10:00AM 33.5742 -117.9750 134° Southeast 428 493 26,100 -2,100 Descending Los Angeles Center
10:01AM 33.4961 -117.8756 133° Southeast 413 475 24,000 -2,220 Descending Los Angeles Center
10:02AM 33.4167 -117.7833 136° Southeast 395 455 22,000 -2,160 Descending Southern California TRACON
10:03AM 33.3667 -117.7167 132° Southeast 385 443 20,700 -1,920 Descending Southern California TRACON
10:03AM 33.3336 -117.6678 129° Southeast 384 442 19,700 -1,920 Descending Los Angeles Center
10:04AM 33.2625 -117.5811 134° Southeast 369 425 17,800 -2,160 Descending Los Angeles Center
10:05AM 33.2167 -117.5333 139° Southeast 375 432 16,500 -2,160 Descending Southern California TRACON
10:06AM 33.1333 -117.4667 146° Southeast 361 415 14,500 -1,800 Descending Southern California TRACON
10:07AM 33.1008 -117.4394 145° Southeast 358 412 13,700 -1,800 Descending Los Angeles Center
10:08AM 33.0217 -117.3769 146° Southeast 347 399 11,800 -1,800 Descending Los Angeles Center
10:08AM 32.9667 -117.3333 146° Southeast 323 372 11,000 -1,380 Descending Southern California TRACON
10:09AM 32.9000 -117.2833 148° Southeast 298 343 9,700 -1,320 Descending Southern California TRACON
10:10AM 32.8333 -117.2333 148° Southeast 294 338 8,300 -1,500 Descending Southern California TRACON
10:11AM 32.8067 -117.1914 127° Southeast 290 334 7,500 -1,260 Descending Los Angeles Center
10:12AM 32.7783 -117.1144 114° Southeast 284 327 6,400 -840 Descending Los Angeles Center
10:12AM 32.7667 -117.0833 114° Southeast 253 291 6,400 -1,260 Level Southern California TRACON
10:13AM 32.7333 -117.0167 121° Southeast 209 241 4,700 -1,620 Descending Southern California TRACON
10:14AM 32.7000 -117.0500 220° Southwest 201 231 3,000 -1,500 Descending Southern California TRACON
10:15AM 32.7167 -117.1167 287° West 154 177 1,600 -1,260 Descending Southern California TRACON
10:16AM 32.7211 -117.1403 283° West 154 177 900 -840 Descending Los Angeles Center
10:17AM 32.7303 -117.1775 286° West 144 166 300 -600 Descending Los Angeles Center